Time;durP1;ratioP1;P1;durP2;ratioP2;P2;SDS_P1;SDS_P2;PMS_P1;PMS_P2;Temp;Humidity;BMP_temperature;BMP_pressure;BME280_temperature;BME280_humidity;BME280_pressure;Samples;Min_cycle;Max_cycle;Signal;HPM_P1;HPM_P2
2022/10/27 00:00:28;;;;;;;4.65;1.90;;;;;;;19.55;57.73;102045.53;5023131;28;20075;-66
2022/10/27 00:02:53;;;;;;;9.00;2.13;;;;;;;19.57;57.75;102056.00;5024393;28;20083;-66
2022/10/27 00:05:21;;;;;;;3.63;1.60;;;;;;;19.61;57.74;102060.09;5058412;28;20062;-65
2022/10/27 00:07:46;;;;;;;3.03;1.50;;;;;;;19.53;57.73;102049.22;5031592;28;20282;-66
2022/10/27 00:10:12;;;;;;;4.75;1.70;;;;;;;19.61;57.88;102059.28;5022858;28;20397;-65
2022/10/27 00:12:37;;;;;;;4.10;1.70;;;;;;;19.57;57.82;102062.13;5022892;28;20126;-64
2022/10/27 00:15:02;;;;;;;3.60;1.87;;;;;;;19.58;57.43;102060.31;5021746;28;20531;-64
2022/10/27 00:17:28;;;;;;;4.43;1.67;;;;;;;19.57;57.64;102056.84;5029711;28;20261;-64
2022/10/27 00:19:53;;;;;;;3.77;1.60;;;;;;;19.56;57.56;102059.56;5042462;28;20029;-65
2022/10/27 00:22:18;;;;;;;3.92;1.73;;;;;;;19.49;57.44;102056.50;5042644;28;20294;-66
2022/10/27 00:24:43;;;;;;;4.38;1.73;;;;;;;19.56;57.78;102064.88;5039581;28;20214;-65
2022/10/27 00:27:09;;;;;;;4.25;1.75;;;;;;;19.55;57.57;102068.44;5028860;28;20102;-64
2022/10/27 00:29:34;;;;;;;4.43;1.67;;;;;;;19.52;57.41;102069.53;5024375;28;20533;-65
2022/10/27 00:31:59;;;;;;;4.22;2.00;;;;;;;19.48;57.26;102061.91;5042216;28;20040;-64
2022/10/27 00:34:25;;;;;;;4.43;2.05;;;;;;;19.53;57.63;102076.47;5036623;28;20087;-66
2022/10/27 00:36:50;;;;;;;4.25;1.70;;;;;;;19.47;57.59;102063.72;5035107;28;20064;-65
2022/10/27 00:39:15;;;;;;;3.92;1.67;;;;;;;19.52;57.63;102071.34;5038181;28;20473;-65
2022/10/27 00:41:41;;;;;;;3.83;1.52;;;;;;;19.49;57.63;102072.38;5031604;28;20036;-65
2022/10/27 00:44:31;;;;;;;4.95;1.88;;;;;;;19.52;57.44;102079.25;5041136;28;20048;-64
2022/10/27 00:47:08;;;;;;;3.55;1.90;;;;;;;19.51;57.25;102086.34;5029400;28;20039;-66
2022/10/27 00:49:52;;;;;;;4.45;1.55;;;;;;;19.45;57.59;102081.44;5038978;28;20033;-64
2022/10/27 00:52:33;;;;;;;4.00;1.50;;;;;;;19.50;57.63;102084.66;5036601;28;20033;-65
2022/10/27 00:55:03;;;;;;;4.90;1.63;;;;;;;19.48;57.50;102089.19;5035555;28;20504;-65
2022/10/27 00:57:30;;;;;;;4.93;1.83;;;;;;;19.49;57.43;102082.94;5040269;28;20029;-65
2022/10/27 00:59:57;;;;;;;4.13;1.52;;;;;;;19.45;57.42;102081.44;5040966;28;20033;-64
2022/10/27 01:02:22;;;;;;;5.70;1.65;;;;;;;19.40;57.54;102076.47;5032340;28;20190;-64
2022/10/27 01:04:53;;;;;;;3.65;1.60;;;;;;;19.43;57.62;102074.59;5028423;28;20167;-65
2022/10/27 01:07:19;;;;;;;4.80;1.70;;;;;;;19.40;57.66;102070.34;5034101;28;20094;-66
2022/10/27 01:09:45;;;;;;;4.20;1.60;;;;;;;19.41;57.47;102072.06;5031652;28;20021;-65
2022/10/27 01:12:11;;;;;;;5.00;1.88;;;;;;;19.42;57.59;102073.72;5041529;28;20473;-64
2022/10/27 01:14:36;;;;;;;3.77;1.50;;;;;;;19.42;57.62;102079.00;5029882;28;20044;-65
2022/10/27 01:17:04;;;;;;;4.40;1.70;;;;;;;19.42;57.67;102083.47;5032754;28;20378;-66
2022/10/27 01:19:48;;;;;;;5.38;1.40;;;;;;;19.39;57.49;102082.72;5021833;28;20064;-65
2022/10/27 01:22:22;;;;;;;2.90;1.50;;;;;;;19.42;57.68;102096.69;5027746;28;20056;-65
2022/10/27 01:25:32;;;;;;;3.13;1.42;;;;;;;19.42;57.58;102096.69;5041631;28;20128;-66
2022/10/27 01:28:05;;;;;;;4.80;1.95;;;;;;;19.43;57.60;102096.56;5004768;28;20041;-66
2022/10/27 01:30:39;;;;;;;3.92;1.67;;;;;;;19.43;57.52;102093.94;5021294;28;20401;-66
2022/10/27 01:33:17;;;;;;;4.22;1.60;;;;;;;19.43;57.54;102093.09;5021800;28;20473;-65
2022/10/27 01:36:02;;;;;;;4.85;1.73;;;;;;;19.38;57.49;102090.75;5038283;28;20040;-65
2022/10/27 01:38:30;;;;;;;3.50;1.40;;;;;;;19.42;57.67;102097.53;5040733;28;20029;-65
2022/10/27 01:41:10;;;;;;;2.72;1.40;;;;;;;19.36;57.66;102093.50;5038225;28;20029;-64
2022/10/27 01:43:36;;;;;;;3.83;1.60;;;;;;;19.38;57.37;102093.41;5036322;28;20044;-65
2022/10/27 01:46:05;;;;;;;3.65;1.60;;;;;;;19.42;57.42;102099.31;5025552;28;20029;-65
2022/10/27 01:48:35;;;;;;;4.28;1.50;;;;;;;19.32;57.80;102085.88;5031464;28;20183;-66
2022/10/27 01:51:00;;;;;;;3.70;1.50;;;;;;;19.34;57.54;102086.63;5025179;28;20079;-65
2022/10/27 01:53:29;;;;;;;6.05;1.88;;;;;;;19.34;57.54;102084.84;5036691;28;20063;-65
2022/10/27 01:56:02;;;;;;;4.20;1.52;;;;;;;19.33;57.77;102080.50;5040857;28;20473;-65
2022/10/27 01:58:51;;;;;;;3.78;1.77;;;;;;;19.30;57.44;102074.56;5027862;28;20037;-64
2022/10/27 02:01:45;;;;;;;3.17;1.55;;;;;;;19.39;57.58;102090.66;5023638;28;20437;-64
2022/10/27 02:04:32;;;;;;;3.97;1.50;;;;;;;19.38;57.41;102091.59;5023715;28;20132;-67
2022/10/27 02:07:48;;;;;;;4.03;1.67;;;;;;;19.38;57.58;102085.47;5029085;28;20496;-66
2022/10/27 02:10:18;;;;;;;;;;;;;;;19.35;57.68;102086.50;5017695;28;20087;-65
2022/10/27 02:12:46;;;;;;;4.10;1.40;;;;;;;19.31;57.63;102078.88;5028635;28;19913;-65
2022/10/27 02:15:23;;;;;;;4.20;1.42;;;;;;;19.37;57.62;102084.59;5023801;28;20334;-65
2022/10/27 02:17:51;;;;;;;4.15;1.67;;;;;;;19.34;57.58;102079.56;5030221;28;20548;-66
2022/10/27 02:20:24;;;;;;;3.20;1.52;;;;;;;19.35;57.78;102081.22;5025736;28;20033;-65
2022/10/27 02:22:53;;;;;;;4.97;1.50;;;;;;;19.29;57.59;102071.06;5031640;28;20058;-66
2022/10/27 02:25:22;;;;;;;3.38;1.38;;;;;;;19.28;57.70;102064.09;5029242;28;20537;-65
2022/10/27 02:27:50;;;;;;;3.42;1.50;;;;;;;19.29;57.76;102060.50;5034933;28;20091;-64
2022/10/27 02:30:16;;;;;;;3.35;1.52;;;;;;;19.28;57.31;102065.88;5028638;28;20041;-66
2022/10/27 02:32:41;;;;;;;5.43;1.80;;;;;;;19.28;57.38;102060.59;5025514;28;20377;-65
2022/10/27 02:35:09;;;;;;;3.13;1.45;;;;;;;19.29;57.56;102067.59;5031147;28;20506;-64
2022/10/27 02:37:38;;;;;;;4.38;1.63;;;;;;;19.34;57.55;102070.75;5029629;28;20030;-65
2022/10/27 02:40:04;;;;;;;4.18;1.65;;;;;;;19.34;57.66;102078.69;5031399;28;20065;-65
2022/10/27 02:42:29;;;;;;;3.10;1.40;;;;;;;19.27;57.70;102067.69;5029124;28;20359;-66
2022/10/27 02:44:54;;;;;;;3.42;1.40;;;;;;;19.31;57.38;102070.97;5028826;28;20025;-65
2022/10/27 02:47:20;;;;;;;3.93;1.43;;;;;;;19.31;57.30;102074.47;5032912;28;20036;-65
2022/10/27 02:49:45;;;;;;;3.65;1.38;;;;;;;19.32;57.42;102072.66;5032005;28;20777;-65
2022/10/27 02:52:10;;;;;;;4.53;1.52;;;;;;;19.31;57.46;102063.91;5037195;28;20041;-65
2022/10/27 02:54:35;;;;;;;3.95;1.50;;;;;;;19.30;57.54;102070.13;5039097;28;20094;-66
2022/10/27 02:57:01;;;;;;;3.50;1.70;;;;;;;19.26;57.60;102059.84;5027147;28;20084;-65
2022/10/27 02:59:26;;;;;;;3.88;1.70;;;;;;;19.19;57.41;102047.06;5031166;28;20263;-65
2022/10/27 03:01:51;;;;;;;3.57;1.50;;;;;;;19.22;57.54;102053.94;5028642;28;20508;-65
2022/10/27 03:04:17;;;;;;;5.13;1.58;;;;;;;19.30;57.26;102056.06;5038754;28;20260;-65
2022/10/27 03:06:42;;;;;;;4.00;1.40;;;;;;;19.26;57.19;102047.47;5042092;28;20037;-65
2022/10/27 03:09:07;;;;;;;3.87;1.70;;;;;;;19.28;57.32;102050.03;5038822;28;20371;-65
2022/10/27 03:11:33;;;;;;;4.30;1.77;;;;;;;19.20;57.14;102037.31;5034178;28;20266;-66
2022/10/27 03:13:58;;;;;;;5.28;1.50;;;;;;;19.21;57.18;102031.94;5036575;28;20282;-65
2022/10/27 03:16:23;;;;;;;3.88;1.60;;;;;;;19.26;57.07;102036.06;5038936;28;20037;-67
2022/10/27 03:18:48;;;;;;;4.13;1.60;;;;;;;19.23;57.12;102031.00;5036051;28;20033;-65
2022/10/27 03:21:14;;;;;;;3.40;1.60;;;;;;;19.25;57.32;102040.53;5027774;28;20049;-65
2022/10/27 03:23:40;;;;;;;4.15;1.75;;;;;;;19.14;57.38;102024.53;5037726;28;20263;-66
2022/10/27 03:26:05;;;;;;;3.85;1.77;;;;;;;19.26;57.32;102039.56;5037633;28;20380;-65
2022/10/27 03:28:34;;;;;;;4.15;1.60;;;;;;;19.20;57.23;102019.69;5028566;28;20029;-64
2022/10/27 03:31:03;;;;;;;3.63;1.55;;;;;;;19.25;57.37;102027.31;5026062;28;20033;-65
2022/10/27 03:33:28;;;;;;;3.88;1.55;;;;;;;19.19;57.35;102017.16;5037094;28;20072;-65
2022/10/27 03:35:53;;;;;;;3.45;1.60;;;;;;;19.16;57.19;102012.91;5029171;28;20060;-65
2022/10/27 03:38:18;;;;;;;3.57;1.40;;;;;;;19.19;57.17;102023.25;5043424;28;20036;-65
2022/10/27 03:40:44;;;;;;;4.00;1.60;;;;;;;19.20;56.99;102026.75;5027478;28;20297;-64
2022/10/27 03:43:10;;;;;;;2.97;1.50;;;;;;;19.15;56.99;102019.16;5023700;28;20267;-66
2022/10/27 03:45:35;;;;;;;3.40;1.52;;;;;;;19.23;57.11;102028.34;5023397;28;20290;-64
2022/10/27 03:48:03;;;;;;;5.32;1.70;;;;;;;19.20;57.35;102022.31;5029313;28;20059;-64
2022/10/27 03:50:29;;;;;;;3.17;1.52;;;;;;;19.11;56.96;102015.00;5035778;28;20033;-65
2022/10/27 03:52:55;;;;;;;3.85;1.60;;;;;;;19.23;57.15;102020.41;5025969;28;20072;-65
2022/10/27 03:55:21;;;;;;;3.30;1.40;;;;;;;19.16;57.20;102018.19;5036036;28;20060;-67
2022/10/27 03:57:46;;;;;;;6.55;1.70;;;;;;;19.21;56.81;102012.59;5037942;28;20543;-66
2022/10/27 04:00:12;;;;;;;4.47;1.58;;;;;;;19.22;57.12;102019.59;5043166;28;20529;-66
2022/10/27 04:02:37;;;;;;;4.35;1.58;;;;;;;19.15;57.13;102008.59;5035940;28;20034;-65
2022/10/27 04:05:03;;;;;;;4.47;1.80;;;;;;;19.18;57.03;102010.16;5036304;28;20112;-65
2022/10/27 04:07:28;;;;;;;3.65;1.50;;;;;;;19.18;56.81;102024.25;5027022;28;20040;-65
2022/10/27 04:09:53;;;;;;;2.93;1.40;;;;;;;19.20;57.01;102029.38;5023095;28;20029;-66
2022/10/27 04:12:18;;;;;;;5.57;1.50;;;;;;;19.20;56.95;102026.75;5027531;28;20264;-66
2022/10/27 04:14:44;;;;;;;3.23;1.50;;;;;;;19.14;56.83;102017.44;5032990;28;20415;-63
2022/10/27 04:17:09;;;;;;;3.97;1.70;;;;;;;19.16;57.02;102026.13;5034838;28;20743;-65
2022/10/27 04:19:34;;;;;;;4.20;1.77;;;;;;;19.12;56.92;102031.69;5023052;28;20570;-65
2022/10/27 04:21:59;;;;;;;4.10;1.60;;;;;;;19.17;57.03;102033.09;5039433;28;20282;-65
2022/10/27 04:24:24;;;;;;;4.10;1.40;;;;;;;19.12;57.00;102031.69;5022831;28;20357;-64
2022/10/27 04:26:50;;;;;;;3.67;1.40;;;;;;;19.17;57.07;102042.84;5028148;28;20758;-64
2022/10/27 04:29:15;;;;;;;6.25;1.55;;;;;;;19.15;56.77;102040.28;5042254;28;20086;-65
2022/10/27 04:31:40;;;;;;;3.67;1.60;;;;;;;19.11;56.71;102038.78;5039819;28;20033;-66
2022/10/27 04:34:06;;;;;;;3.87;1.63;;;;;;;19.07;56.97;102033.81;5028962;28;20274;-65
2022/10/27 04:36:31;;;;;;;3.85;1.60;;;;;;;19.16;56.68;102049.06;5042288;28;20262;-66
2022/10/27 04:38:56;;;;;;;3.92;1.60;;;;;;;19.09;56.95;102040.69;5042078;28;20369;-65
2022/10/27 04:41:22;;;;;;;4.03;1.65;;;;;;;19.15;56.92;102053.50;5026521;28;20040;-64
2022/10/27 04:43:49;;;;;;;3.42;1.40;;;;;;;19.14;57.26;102049.16;5029057;28;20369;-66
2022/10/27 04:46:14;;;;;;;4.18;1.48;;;;;;;19.13;56.96;102041.34;5021615;28;21289;-65
2022/10/27 04:48:39;;;;;;;3.53;1.30;;;;;;;19.07;56.92;102034.66;5022194;28;20056;-65
2022/10/27 04:51:05;;;;;;;4.07;1.60;;;;;;;19.08;56.80;102038.16;5032188;28;20610;-65
2022/10/27 04:53:30;;;;;;;3.95;1.42;;;;;;;19.10;57.03;102041.53;5036545;28;20286;-66
2022/10/27 04:55:55;;;;;;;4.70;1.60;;;;;;;19.11;56.79;102046.72;5022079;28;20381;-65
2022/10/27 04:58:20;;;;;;;3.53;1.50;;;;;;;19.10;56.86;102044.19;5021198;28;20037;-64
2022/10/27 05:00:47;;;;;;;4.47;1.50;;;;;;;19.13;56.81;102046.63;5029604;28;20281;-65
2022/10/27 05:03:12;;;;;;;4.18;1.33;;;;;;;19.12;56.86;102048.44;5021927;28;20433;-65
2022/10/27 05:05:37;;;;;;;3.42;1.58;;;;;;;19.10;56.69;102055.59;5022081;28;20422;-65
2022/10/27 05:08:03;;;;;;;4.87;1.60;;;;;;;19.12;56.85;102048.44;5037115;28;20040;-66
2022/10/27 05:10:31;;;;;;;3.20;1.33;;;;;;;19.12;57.00;102048.44;5022143;28;20263;-65
2022/10/27 05:12:56;;;;;;;4.85;1.67;;;;;;;19.12;56.75;102042.28;5035559;28;20120;-65
2022/10/27 05:15:21;;;;;;;3.05;1.30;;;;;;;19.08;56.76;102038.16;5041904;28;20163;-65
2022/10/27 05:17:47;;;;;;;5.03;1.52;;;;;;;19.06;56.88;102040.91;5041237;28;20145;-64
2022/10/27 05:20:12;;;;;;;4.10;1.83;;;;;;;19.05;56.79;102033.91;5041538;28;20098;-64
2022/10/27 05:22:38;;;;;;;5.10;1.45;;;;;;;19.10;56.99;102044.19;5028268;28;20049;-65
2022/10/27 05:25:05;;;;;;;3.85;1.40;;;;;;;19.12;56.86;102047.56;5038859;28;20435;-65
2022/10/27 05:27:31;;;;;;;4.07;1.50;;;;;;;19.10;56.61;102042.38;5025484;28;20032;-64
2022/10/27 05:29:57;;;;;;;4.43;1.90;;;;;;;19.12;56.71;102040.50;5021344;28;20029;-66
2022/10/27 05:32:22;;;;;;;3.33;1.50;;;;;;;19.05;57.03;102028.63;5021891;28;20032;-65
2022/10/27 05:34:47;;;;;;;4.43;1.52;;;;;;;19.04;56.86;102034.84;5038059;28;20033;-67
2022/10/27 05:37:12;;;;;;;4.00;1.60;;;;;;;19.06;56.98;102029.47;5024029;28;20052;-66
2022/10/27 05:39:38;;;;;;;4.07;1.70;;;;;;;19.13;56.98;102042.16;5040821;28;20262;-65
2022/10/27 05:42:03;;;;;;;5.40;1.53;;;;;;;18.98;57.02;102008.88;5041650;28;20641;-66
2022/10/27 05:44:28;;;;;;;4.18;1.58;;;;;;;19.15;56.98;102034.16;5038364;28;20262;-65
2022/10/27 05:46:54;;;;;;;3.83;1.57;;;;;;;19.09;57.00;102026.63;5041304;28;20416;-66
2022/10/27 05:49:20;;;;;;;3.38;1.60;;;;;;;19.16;57.26;102031.41;5022089;28;20251;-66
2022/10/27 05:51:48;;;;;;;4.10;1.83;;;;;;;19.13;56.96;102023.66;5021417;28;20048;-65
2022/10/27 05:54:13;;;;;;;3.42;1.63;;;;;;;19.19;57.38;102033.00;5043164;28;20044;-67
2022/10/27 05:56:41;;;;;;;3.73;1.80;;;;;;;19.17;57.29;102025.16;5021182;28;20033;-66
2022/10/27 05:59:06;;;;;;;3.72;1.63;;;;;;;19.14;57.25;102024.53;5036083;28;20330;-66
2022/10/27 06:01:32;;;;;;;4.40;1.63;;;;;;;19.22;57.51;102024.88;5041085;28;20733;-66
2022/10/27 06:03:57;;;;;;;4.03;1.75;;;;;;;19.25;57.42;102031.72;5037564;28;20075;-66
2022/10/27 06:06:22;;;;;;;4.33;1.80;;;;;;;19.19;57.41;102025.91;5036212;28;20071;-66
2022/10/27 06:08:48;;;;;;;4.30;1.48;;;;;;;19.24;57.17;102019.47;5021405;28;20689;-67
2022/10/27 06:11:14;;;;;;;4.27;1.80;;;;;;;19.18;57.64;102012.78;5042305;28;20040;-68
2022/10/27 06:13:39;;;;;;;3.70;1.58;;;;;;;19.26;57.65;102022.84;5033808;28;20258;-67
2022/10/27 06:16:04;;;;;;;4.05;1.65;;;;;;;19.28;57.46;102018.31;5033690;28;20052;-67
2022/10/27 06:18:30;;;;;;;4.95;1.83;;;;;;;19.29;57.98;102018.19;5037034;28;20047;-68
2022/10/27 06:20:55;;;;;;;5.17;1.53;;;;;;;19.30;57.92;102013.78;5038465;28;20037;-66
2022/10/27 06:23:20;;;;;;;4.60;1.63;;;;;;;19.34;57.94;102017.88;5038461;28;20754;-66
2022/10/27 06:25:45;;;;;;;3.33;1.70;;;;;;;19.31;57.91;102012.81;5042128;28;20049;-67
2022/10/27 06:28:11;;;;;;;7.57;2.15;;;;;;;19.31;57.87;102010.16;5044830;28;20037;-68
2022/10/27 06:30:36;;;;;;;3.53;1.55;;;;;;;19.30;57.72;101997.94;5039472;28;20039;-66
2022/10/27 06:33:01;;;;;;;3.90;1.73;;;;;;;19.32;57.70;102004.78;5035192;28;20037;-67
2022/10/27 06:35:27;;;;;;;4.97;1.92;;;;;;;19.30;58.04;101995.28;5036045;28;20847;-68
2022/10/27 06:37:52;;;;;;;3.10;1.60;;;;;;;19.38;57.79;102004.38;5035387;28;20049;-66
2022/10/27 06:40:19;;;;;;;5.90;1.80;;;;;;;19.40;57.78;102012.19;5024434;28;20794;-68
2022/10/27 06:42:49;;;;;;;3.70;1.73;;;;;;;19.40;57.90;102005.09;5024862;28;20269;-67
2022/10/27 06:45:17;;;;;;;4.00;1.70;;;;;;;19.40;57.97;102002.44;5037451;28;20041;-65
2022/10/27 06:47:43;;;;;;;5.38;1.85;;;;;;;19.42;58.15;101998.88;5044209;28;20070;-67
2022/10/27 06:50:08;;;;;;;4.55;1.52;;;;;;;19.45;57.91;102006.59;5031588;28;21136;-67
2022/10/27 06:52:38;;;;;;;3.83;1.73;;;;;;;19.39;57.84;101986.69;5044394;28;20047;-66
2022/10/27 06:55:04;;;;;;;3.70;1.55;;;;;;;19.45;57.80;101999.50;5039350;28;20029;-67
2022/10/27 06:57:30;;;;;;;4.53;2.00;;;;;;;19.46;57.96;101993.28;5037324;28;20021;-66
2022/10/27 06:59:55;;;;;;;3.60;1.58;;;;;;;19.44;57.67;101995.19;5036865;28;20364;-67
2022/10/27 07:02:21;;;;;;;4.97;1.43;;;;;;;19.47;57.49;102002.03;5027861;28;20039;-67
2022/10/27 07:04:46;;;;;;;4.03;1.50;;;;;;;19.44;57.74;101995.19;5034362;28;20588;-67
2022/10/27 07:07:12;;;;;;;7.27;1.60;;;;;;;19.42;57.54;101991.78;5039217;28;20041;-66
2022/10/27 07:09:37;;;;;;;4.15;1.58;;;;;;;19.45;57.66;101991.56;5034897;28;20271;-74
2022/10/27 07:12:02;;;;;;;4.53;1.83;;;;;;;19.44;57.80;101994.31;5035117;28;21049;-72
2022/10/27 07:14:28;;;;;;;3.47;1.30;;;;;;;19.49;57.58;102003.63;5027592;28;20111;-74
2022/10/27 07:16:53;;;;;;;4.20;1.40;;;;;;;19.47;57.72;101996.75;5025714;28;20159;-72
2022/10/27 07:19:18;;;;;;;4.57;1.50;;;;;;;19.53;57.22;102001.63;5037727;28;20874;-73
2022/10/27 07:21:43;;;;;;;3.95;1.65;;;;;;;19.62;57.18;102008.91;5030854;28;20321;-66
2022/10/27 07:24:08;;;;;;;4.10;1.67;;;;;;;19.60;57.19;102010.84;5023490;28;20029;-66
2022/10/27 07:26:34;;;;;;;5.30;1.50;;;;;;;19.39;57.17;101969.06;5030906;28;20036;-65
2022/10/27 07:28:59;;;;;;;8.07;1.70;;;;;;;19.64;57.02;101999.06;5030002;28;20286;-72
2022/10/27 07:31:24;;;;;;;4.20;1.50;;;;;;;19.67;57.09;101998.84;5023002;28;20064;-74
2022/10/27 07:33:49;;;;;;;5.50;1.70;;;;;;;19.69;57.16;101990.81;5037858;28;20029;-73
2022/10/27 07:36:15;;;;;;;4.10;1.57;;;;;;;19.71;57.01;101988.91;5046429;28;20406;-68
2022/10/27 07:38:40;;;;;;;3.07;1.30;;;;;;;19.77;56.98;101996.44;5041600;28;20262;-69
2022/10/27 07:41:05;;;;;;;4.05;1.65;;;;;;;19.76;56.96;101992.13;5033189;28;21250;-72
2022/10/27 07:43:31;;;;;;;4.78;1.85;;;;;;;19.75;56.93;101993.88;5026421;28;20105;-68
2022/10/27 07:45:56;;;;;;;3.25;1.30;;;;;;;19.75;56.66;101990.41;5028279;28;20124;-67
2022/10/27 07:48:22;;;;;;;3.53;1.60;;;;;;;19.80;56.64;102006.81;5032347;28;20038;-66
2022/10/27 07:50:47;;;;;;;5.10;1.67;;;;;;;19.72;56.65;101993.25;5026958;28;20482;-71
2022/10/27 07:53:16;;;;;;;4.25;1.50;;;;;;;19.79;56.64;102002.50;5027426;28;20357;-67
2022/10/27 07:55:42;;;;;;;3.80;1.40;;;;;;;19.83;56.64;102019.00;5022794;28;20045;-71
2022/10/27 07:58:13;;;;;;;4.45;1.55;;;;;;;19.83;56.57;102011.88;5029241;28;20037;-72
2022/10/27 08:00:41;;;;;;;6.25;1.63;;;;;;;19.79;56.43;101994.56;5040806;28;20536;-69
2022/10/27 08:03:10;;;;;;;3.50;1.27;;;;;;;19.90;56.53;102010.53;5041910;28;20111;-67
2022/10/27 08:05:36;;;;;;;5.95;1.75;;;;;;;19.86;56.31;101997.63;5038198;28;20025;-69
2022/10/27 08:08:03;;;;;;;6.10;1.35;;;;;;;19.91;56.31;102003.41;5028388;28;20044;-66
2022/10/27 08:10:30;;;;;;;4.28;1.30;;;;;;;19.89;56.24;101992.94;5027525;28;20575;-71
2022/10/27 08:12:56;;;;;;;8.70;1.92;;;;;;;19.94;56.19;102006.69;5039959;28;20028;-71
2022/10/27 08:15:22;;;;;;;3.80;1.70;;;;;;;19.97;56.18;102004.78;5036205;28;20041;-73
2022/10/27 08:17:56;;;;;;;3.75;1.42;;;;;;;20.00;56.28;101997.47;5045068;28;20374;-69
2022/10/27 08:20:22;;;;;;;4.72;1.48;;;;;;;19.97;56.34;101976.53;5032235;28;20040;-71
2022/10/27 08:23:02;;;;;;;3.90;1.40;;;;;;;20.03;56.04;101981.38;5033740;28;20053;-65
2022/10/27 08:25:28;;;;;;;3.20;1.30;;;;;;;19.97;56.27;101983.63;5022220;28;20072;-64
2022/10/27 08:27:54;;;;;;;4.90;1.60;;;;;;;19.92;56.41;101973.38;5032111;28;20064;-64
2022/10/27 08:30:20;;;;;;;5.75;1.20;;;;;;;20.05;56.41;101994.50;5027139;28;20352;-67
2022/10/27 08:32:47;;;;;;;7.28;1.50;;;;;;;19.99;56.39;101985.19;5041676;28;20025;-64
2022/10/27 08:35:12;;;;;;;3.70;1.20;;;;;;;20.09;56.24;102001.25;5037282;28;21037;-69
2022/10/27 08:37:38;;;;;;;5.03;1.25;;;;;;;20.06;55.68;101983.81;5022053;28;20088;-68
2022/10/27 08:40:04;;;;;;;3.50;1.30;;;;;;;20.03;55.98;101973.44;5022997;28;20037;-67
2022/10/27 08:42:34;;;;;;;4.78;1.30;;;;;;;20.08;56.03;101987.19;5032774;28;20760;-66
2022/10/27 08:45:23;;;;;;;4.20;1.23;;;;;;;20.09;55.90;101988.03;5041499;28;20540;-66
2022/10/27 08:47:48;;;;;;;3.30;1.23;;;;;;;20.04;56.13;101976.94;5035460;28;20029;-65
2022/10/27 08:50:21;;;;;;;5.80;1.43;;;;;;;20.07;56.36;101987.28;5031934;28;20082;-66
2022/10/27 08:53:03;;;;;;;3.40;1.20;;;;;;;20.08;56.15;101976.59;5023978;28;20892;-71
2022/10/27 08:55:35;;;;;;;3.30;1.30;;;;;;;20.06;55.89;101961.78;5034388;28;20056;-72
2022/10/27 08:58:36;;;;;;;3.65;1.20;;;;;;;20.13;56.02;101967.50;5041316;28;20028;-73
2022/10/27 09:01:19;;;;;;;3.67;1.35;;;;;;;20.10;56.13;101942.09;5056415;28;20040;-75
2022/10/27 09:04:00;;;;;;;6.30;1.40;;;;;;;20.19;55.68;101951.19;5024923;28;20618;-73
2022/10/27 09:06:32;;;;;;;2.70;1.10;;;;;;;20.21;55.76;101943.97;5037855;28;20430;-70
2022/10/27 09:09:23;;;;;;;5.63;1.27;;;;;;;20.24;55.74;101949.03;5041211;28;20978;-70
2022/10/27 09:12:31;;;;;;;4.30;1.25;;;;;;;20.19;55.61;101941.44;5025466;28;20121;-71
2022/10/27 09:15:36;;;;;;;4.50;1.20;;;;;;;20.25;55.50;101945.41;5028444;28;20040;-64
2022/10/27 09:18:19;;;;;;;4.32;1.40;;;;;;;20.22;55.61;101948.28;5031314;28;20045;-65
2022/10/27 09:20:48;;;;;;;4.28;1.25;;;;;;;20.14;55.61;101945.34;5037576;28;20468;-63
2022/10/27 09:23:18;;;;;;;3.83;1.20;;;;;;;20.08;55.88;101933.44;5023131;28;20256;-67
2022/10/27 09:25:48;;;;;;;2.88;1.10;;;;;;;20.13;55.86;101944.50;5021470;28;20053;-68
2022/10/27 09:28:28;;;;;;;3.08;1.20;;;;;;;20.13;56.01;101936.56;5027885;28;20033;-67
2022/10/27 09:30:54;;;;;;;6.05;1.42;;;;;;;20.06;55.61;101930.88;5030993;28;20029;-67
2022/10/27 09:33:26;;;;;;;2.90;1.25;;;;;;;20.13;55.83;101935.75;5021326;28;20108;-64
2022/10/27 09:35:52;;;;;;;5.72;1.33;;;;;;;20.11;56.09;101936.69;5036210;28;20094;-63
2022/10/27 09:38:21;;;;;;;4.47;1.70;;;;;;;20.09;56.08;101935.97;5041517;28;20029;-63
2022/10/27 09:40:47;;;;;;;4.32;1.38;;;;;;;20.04;56.23;101918.72;5035655;28;20024;-72
2022/10/27 09:43:12;;;;;;;5.15;1.40;;;;;;;20.08;56.22;101915.75;5028006;28;20029;-71
2022/10/27 09:45:37;;;;;;;3.92;1.42;;;;;;;20.05;55.95;101907.19;5030756;28;20032;-71
2022/10/27 09:48:06;;;;;;;3.35;1.20;;;;;;;20.15;56.09;101912.66;5028310;28;20347;-65
2022/10/27 09:50:45;;;;;;;4.72;1.40;;;;;;;20.07;56.01;101914.03;5030100;28;20037;-65
2022/10/27 09:53:38;;;;;;;6.53;1.90;;;;;;;20.13;55.97;101920.69;5035041;28;20212;-72
2022/10/27 09:56:06;;;;;;;3.90;1.40;;;;;;;20.16;56.27;101925.78;5021897;28;20106;-69
2022/10/27 09:58:42;;;;;;;5.55;1.13;;;;;;;20.13;55.75;101911.94;5034295;28;20461;-70
2022/10/27 10:01:09;;;;;;;3.22;1.33;;;;;;;20.20;55.72;101929.91;5025684;28;20152;-70
2022/10/27 10:03:35;;;;;;;4.43;1.40;;;;;;;20.13;55.67;101912.75;5032910;28;20029;-71
2022/10/27 10:06:04;;;;;;;2.67;1.02;;;;;;;20.23;55.63;101924.34;5034842;28;20051;-69
2022/10/27 10:08:35;;;;;;;3.47;1.15;;;;;;;20.25;55.57;101925.09;5025901;28;20061;-69
2022/10/27 10:11:04;;;;;;;5.30;1.38;;;;;;;20.24;55.26;101918.09;5032283;28;20036;-69
2022/10/27 10:13:36;;;;;;;3.70;1.27;;;;;;;20.26;55.54;101902.94;5037679;28;20047;-71
2022/10/27 10:16:07;;;;;;;4.28;1.25;;;;;;;20.31;55.29;101902.59;5040299;28;20083;-70
2022/10/27 10:18:34;;;;;;;4.15;1.30;;;;;;;20.24;55.20;101886.34;5023944;28;20029;-69
2022/10/27 10:21:06;;;;;;;3.70;1.08;;;;;;;20.30;55.44;101896.47;5036216;28;20051;-67
2022/10/27 10:23:46;;;;;;;4.35;1.30;;;;;;;20.32;55.70;101906.13;5029865;28;20150;-67
2022/10/27 10:26:19;;;;;;;7.35;2.17;;;;;;;20.30;55.30;101901.78;5030202;28;20120;-71
2022/10/27 10:28:46;;;;;;;4.25;1.48;;;;;;;20.26;55.51;101895.00;5025186;28;20043;-64
2022/10/27 10:31:15;;;;;;;4.63;1.45;;;;;;;20.22;55.71;101896.22;5028643;28;20079;-65
2022/10/27 10:33:45;;;;;;;4.57;1.38;;;;;;;20.12;56.11;101879.31;5028949;28;20079;-63
2022/10/27 10:36:39;;;;;;;4.57;1.38;;;;;;;20.24;55.65;101899.56;5019779;28;20080;-64
2022/10/27 10:39:35;;;;;;;5.15;1.50;;;;;;;20.22;55.81;101895.34;5039653;28;20473;-64
2022/10/27 10:42:16;;;;;;;5.18;1.50;;;;;;;20.23;56.01;101892.59;5026604;28;20045;-64
2022/10/27 10:44:42;;;;;;;5.65;1.58;;;;;;;20.20;56.11;101884.91;5020980;28;20097;-64
2022/10/27 10:47:27;;;;;;;3.20;1.20;;;;;;;20.22;56.02;101879.47;5023695;28;20032;-63
2022/10/27 10:50:00;;;;;;;7.70;1.38;;;;;;;20.22;56.36;101876.81;5036677;28;20033;-64
2022/10/27 10:52:33;;;;;;;3.97;1.42;;;;;;;20.20;56.06;101870.81;5037844;28;20043;-69
2022/10/27 10:55:15;;;;;;;5.75;1.40;;;;;;;20.24;56.28;101877.56;5023877;28;20033;-64
2022/10/27 10:57:47;;;;;;;6.60;1.50;;;;;;;20.24;56.28;101878.41;5022517;28;20051;-65
2022/10/27 11:00:16;;;;;;;4.13;1.35;;;;;;;20.17;56.39;101868.38;5040107;28;20027;-66
2022/10/27 11:02:42;;;;;;;6.03;1.33;;;;;;;20.15;56.34;101860.56;5025198;28;20039;-67
2022/10/27 11:05:13;;;;;;;5.05;1.38;;;;;;;20.22;56.29;101879.47;5036571;28;20039;-66
2022/10/27 11:07:39;;;;;;;6.70;1.50;;;;;;;20.17;56.47;101869.25;5035115;28;20116;-66
2022/10/27 11:10:16;;;;;;;3.33;1.38;;;;;;;20.21;56.61;101881.28;5039919;28;20599;-64
2022/10/27 11:13:02;;;;;;;9.75;1.48;;;;;;;20.20;56.62;101876.09;5028274;28;20043;-74
2022/10/27 11:15:34;;;;;;;8.75;1.50;;;;;;;20.17;56.34;101873.66;5035108;28;20040;-72
2022/10/27 11:18:22;;;;;;;4.03;1.30;;;;;;;20.16;56.21;101867.53;5032580;28;20533;-71
2022/10/27 11:20:54;;;;;;;3.63;1.30;;;;;;;20.25;56.65;101866.00;5022973;28;20048;-72
2022/10/27 11:23:26;;;;;;;4.25;1.40;;;;;;;20.27;55.98;101872.88;5022767;28;20079;-70
2022/10/27 11:25:55;;;;;;;5.32;2.42;;;;;;;20.23;56.14;101858.16;5027857;28;20033;-70
2022/10/27 11:28:27;;;;;;;5.07;1.30;;;;;;;20.34;55.83;101875.06;5033583;28;20079;-67
2022/10/27 11:31:18;;;;;;;7.15;1.45;;;;;;;20.33;56.42;101874.25;5023164;28;20037;-71
2022/10/27 11:34:11;;;;;;;7.20;2.03;;;;;;;20.32;56.08;101861.13;5037555;28;20056;-73